createdAt,value
2023-01-30T00:00:08.873Z,10.70
2023-01-30T00:02:52.939Z,8.97
2023-01-30T00:05:36.830Z,9.20
2023-01-30T00:08:20.894Z,10.77
2023-01-30T00:11:06.318Z,8.83
2023-01-30T00:13:52.544Z,10.93
2023-01-30T00:16:36.665Z,9.13
2023-01-30T00:19:20.547Z,9.03
2023-01-30T00:22:04.320Z,8.07
2023-01-30T00:24:48.278Z,8.83
2023-01-30T00:27:32.292Z,7.20
2023-01-30T00:30:17.961Z,7.53
2023-01-30T00:33:02.275Z,7.87
2023-01-30T00:35:47.024Z,7.50
2023-01-30T00:38:30.899Z,7.70
2023-01-30T00:41:15.443Z,8.73
2023-01-30T00:44:16.600Z,8.17
2023-01-30T00:47:09.000Z,6.83
2023-01-30T00:49:52.886Z,6.97
2023-01-30T00:52:36.733Z,6.93
2023-01-30T00:55:20.507Z,8.37
2023-01-30T00:58:04.302Z,7.63
2023-01-30T01:00:48.508Z,7.57
2023-01-30T01:03:33.720Z,6.87
2023-01-30T01:06:17.709Z,9.47
2023-01-30T01:09:02.658Z,6.20
2023-01-30T01:11:46.785Z,7.63
2023-01-30T01:14:30.944Z,7.03
2023-01-30T01:17:16.327Z,7.90
2023-01-30T01:20:01.536Z,7.00
2023-01-30T01:22:49.732Z,7.17
2023-01-30T01:25:33.599Z,8.83
2023-01-30T01:28:21.702Z,8.27
2023-01-30T01:31:10.652Z,7.23
2023-01-30T01:33:54.516Z,9.20
2023-01-30T01:36:55.589Z,6.97
2023-01-30T01:39:57.204Z,6.23
2023-01-30T01:42:41.363Z,6.97
2023-01-30T01:45:26.075Z,7.87
2023-01-30T01:48:15.867Z,9.53
2023-01-30T01:51:06.770Z,10.13
2023-01-30T01:53:57.614Z,7.93
2023-01-30T01:56:45.992Z,8.70
2023-01-30T01:59:36.185Z,7.73
2023-01-30T02:02:21.714Z,8.90
2023-01-30T02:05:11.216Z,7.10
2023-01-30T02:08:01.882Z,9.53
2023-01-30T02:10:54.480Z,8.73
2023-01-30T02:13:38.290Z,10.57
2023-01-30T02:16:22.205Z,7.87
2023-01-30T02:19:25.332Z,6.23
2023-01-30T02:22:22.782Z,7.13
2023-01-30T02:25:43.499Z,9.37
2023-01-30T02:28:53.694Z,7.90
2023-01-30T02:31:46.652Z,20.80
2023-01-30T02:34:43.960Z,9.07
2023-01-30T02:37:41.974Z,13.53
2023-01-30T02:40:40.773Z,9.10
2023-01-30T02:43:32.453Z,8.27
2023-01-30T02:46:22.388Z,8.40
2023-01-30T02:49:11.838Z,10.63
2023-01-30T02:51:59.284Z,9.20
2023-01-30T02:54:43.386Z,9.03
2023-01-30T02:57:28.018Z,9.30
2023-01-30T03:00:21.193Z,9.10
2023-01-30T03:03:33.060Z,8.47
2023-01-30T03:06:41.139Z,9.00
2023-01-30T03:09:36.877Z,9.07
2023-01-30T03:12:33.421Z,8.63
2023-01-30T03:15:23.618Z,9.80
2023-01-30T03:18:08.350Z,8.13
2023-01-30T03:20:52.670Z,9.07
2023-01-30T03:23:37.932Z,9.13
2023-01-30T03:26:27.464Z,9.03
2023-01-30T03:29:11.332Z,8.77
2023-01-30T03:31:55.206Z,8.00
2023-01-30T03:34:39.110Z,9.40
2023-01-30T03:37:22.949Z,9.57
2023-01-30T03:40:09.953Z,9.73
2023-01-30T03:42:54.811Z,10.03
2023-01-30T03:45:38.751Z,11.07
2023-01-30T03:48:22.868Z,8.67
2023-01-30T03:51:07.302Z,9.23
2023-01-30T03:53:51.170Z,9.97
2023-01-30T03:56:36.424Z,9.67
2023-01-30T03:59:20.451Z,10.30
2023-01-30T04:02:10.731Z,10.30
2023-01-30T04:04:54.761Z,8.93
2023-01-30T04:07:38.843Z,10.73
2023-01-30T04:10:22.779Z,8.33
2023-01-30T04:13:07.938Z,10.83
2023-01-30T04:15:51.822Z,10.10
2023-01-30T04:18:55.614Z,11.87
2023-01-30T04:21:42.035Z,10.57
2023-01-30T04:24:25.908Z,9.53
2023-01-30T04:27:10.510Z,10.40
2023-01-30T04:30:04.082Z,10.30
2023-01-30T04:32:48.576Z,12.00
2023-01-30T04:35:32.602Z,10.30
2023-01-30T04:38:16.547Z,13.67
2023-01-30T04:41:01.181Z,9.93
2023-01-30T04:43:47.358Z,12.63
2023-01-30T04:46:47.814Z,9.77
2023-01-30T04:49:32.505Z,8.90
2023-01-30T04:52:17.541Z,10.17
2023-01-30T04:55:01.458Z,9.53
2023-01-30T04:57:47.035Z,10.73
2023-01-30T05:00:31.033Z,10.00
2023-01-30T05:03:18.927Z,7.93
2023-01-30T05:06:02.824Z,9.57
2023-01-30T05:08:49.764Z,10.20
2023-01-30T05:11:33.729Z,10.30
2023-01-30T05:14:17.786Z,10.50
2023-01-30T05:17:01.766Z,12.90
2023-01-30T05:19:47.255Z,12.50
2023-01-30T05:22:31.226Z,11.37
2023-01-30T05:25:16.141Z,12.77
2023-01-30T05:28:00.424Z,11.73
2023-01-30T05:30:46.290Z,12.23
2023-01-30T05:33:31.119Z,11.10
2023-01-30T05:36:17.885Z,18.63
2023-01-30T05:39:01.696Z,19.63
2023-01-30T05:41:45.673Z,20.77
2023-01-30T05:44:29.591Z,21.00
2023-01-30T05:47:13.483Z,23.50
2023-01-30T05:49:57.401Z,21.57
2023-01-30T05:52:42.573Z,13.00
2023-01-30T05:55:26.538Z,11.03
2023-01-30T05:58:10.423Z,10.63
2023-01-30T06:00:54.374Z,12.90
2023-01-30T06:03:38.231Z,11.97
2023-01-30T06:06:22.730Z,18.27
2023-01-30T06:09:07.904Z,18.77
2023-01-30T06:11:53.256Z,15.33
2023-01-30T06:14:37.172Z,17.63
2023-01-30T06:17:20.973Z,11.50
2023-01-30T06:20:05.271Z,12.37
2023-01-30T06:22:49.451Z,16.00
2023-01-30T06:25:34.693Z,12.27
2023-01-30T06:28:20.061Z,12.17
2023-01-30T06:31:04.121Z,12.67
2023-01-30T06:33:49.441Z,15.03
2023-01-30T06:36:33.607Z,12.40
2023-01-30T06:39:17.431Z,19.47
2023-01-30T06:42:02.635Z,20.07
2023-01-30T06:44:46.565Z,19.67
2023-01-30T06:47:30.521Z,18.83
2023-01-30T06:50:16.058Z,14.87
2023-01-30T06:52:59.973Z,12.63
2023-01-30T06:55:43.864Z,14.93
2023-01-30T06:58:29.244Z,13.73
2023-01-30T07:01:13.161Z,13.07
2023-01-30T07:03:57.043Z,15.17
2023-01-30T07:06:40.888Z,11.47
2023-01-30T07:09:24.791Z,16.73
2023-01-30T07:12:08.657Z,15.70
2023-01-30T07:14:54.227Z,18.47
2023-01-30T07:17:38.065Z,18.93
2023-01-30T07:20:21.813Z,19.50
2023-01-30T07:23:05.869Z,17.50
2023-01-30T07:25:49.696Z,18.40
2023-01-30T07:28:33.480Z,20.57
2023-01-30T07:31:19.013Z,20.20
2023-01-30T07:34:03.024Z,24.27
2023-01-30T07:36:47.002Z,23.00
2023-01-30T07:39:30.974Z,22.40
2023-01-30T07:42:15.054Z,21.63
2023-01-30T07:44:58.989Z,23.80
2023-01-30T07:47:44.585Z,24.77
2023-01-30T07:50:28.845Z,25.40
2023-01-30T07:53:14.715Z,30.73
2023-01-30T07:55:59.563Z,26.13
2023-01-30T07:58:43.436Z,33.00
2023-01-30T08:01:27.593Z,26.23
2023-01-30T08:04:13.159Z,26.33
2023-01-30T08:06:57.565Z,21.93
2023-01-30T08:09:41.620Z,18.73
2023-01-30T08:12:25.639Z,20.73
2023-01-30T08:15:10.715Z,21.40
2023-01-30T08:17:56.529Z,20.77
2023-01-30T08:20:42.940Z,19.43
2023-01-30T08:23:27.011Z,29.63
2023-01-30T08:26:11.100Z,29.70
2023-01-30T08:28:56.090Z,25.13
2023-01-30T08:31:40.143Z,14.20
2023-01-30T08:34:24.179Z,16.53
2023-01-30T08:37:09.669Z,18.07
2023-01-30T08:39:53.666Z,18.93
2023-01-30T08:42:37.833Z,18.13
2023-01-30T08:45:21.872Z,22.03
2023-01-30T08:48:07.589Z,20.87
2023-01-30T08:50:53.347Z,20.63
2023-01-30T08:53:38.742Z,18.60
2023-01-30T08:56:22.771Z,21.87
2023-01-30T08:59:07.934Z,19.97
2023-01-30T09:01:52.004Z,21.70
2023-01-30T09:04:36.159Z,19.33
2023-01-30T09:07:20.327Z,22.20
2023-01-30T09:10:06.710Z,33.10
2023-01-30T09:12:51.095Z,25.17
2023-01-30T09:15:35.135Z,30.67
2023-01-30T09:18:19.036Z,30.63
2023-01-30T09:21:07.504Z,19.03
2023-01-30T09:23:51.513Z,27.73
2023-01-30T09:26:36.764Z,19.53
2023-01-30T09:29:20.669Z,14.73
2023-01-30T09:32:04.883Z,19.40
2023-01-30T09:34:48.627Z,23.57
2023-01-30T09:37:32.606Z,30.40
2023-01-30T09:40:18.856Z,22.97
2023-01-30T09:43:20.911Z,28.03
2023-01-30T09:46:22.261Z,22.60
2023-01-30T09:49:14.490Z,20.70
2023-01-30T09:52:10.566Z,21.00
2023-01-30T09:55:01.778Z,20.93
2023-01-30T09:57:49.148Z,21.00
2023-01-30T10:00:37.288Z,23.30
2023-01-30T10:03:24.737Z,21.57
2023-01-30T10:06:12.625Z,18.57
2023-01-30T10:09:04.535Z,19.67
2023-01-30T10:12:02.045Z,18.87
2023-01-30T10:15:14.858Z,18.30
2023-01-30T10:18:27.175Z,18.63
2023-01-30T10:21:21.882Z,17.17
2023-01-30T10:24:19.817Z,20.10
2023-01-30T10:27:05.049Z,15.03
2023-01-30T10:29:53.858Z,10.37
2023-01-30T10:32:45.433Z,11.97
2023-01-30T10:35:35.350Z,11.30
2023-01-30T10:38:23.039Z,10.20
2023-01-30T10:41:15.702Z,12.60
2023-01-30T10:44:04.386Z,9.40
2023-01-30T10:47:03.083Z,8.10
2023-01-30T10:49:53.083Z,8.90
2023-01-30T10:52:46.815Z,8.80
2023-01-30T10:55:38.680Z,9.47
2023-01-30T10:58:31.169Z,8.90
2023-01-30T11:01:21.079Z,7.97
2023-01-30T11:04:22.948Z,9.90
2023-01-30T11:07:07.462Z,7.93
2023-01-30T11:09:52.678Z,8.43
2023-01-30T11:12:36.528Z,6.93
2023-01-30T11:15:22.203Z,8.30
2023-01-30T11:18:50.903Z,7.83
2023-01-30T11:21:22.268Z,8.40
2023-01-30T11:24:17.177Z,21.13
2023-01-30T11:27:12.347Z,13.03
2023-01-30T11:30:06.034Z,8.60
2023-01-30T11:32:50.909Z,10.53
2023-01-30T11:35:45.542Z,8.93
2023-01-30T11:38:31.643Z,10.23
2023-01-30T11:41:21.377Z,11.27
2023-01-30T11:44:06.958Z,8.47
2023-01-30T11:46:50.889Z,9.37
2023-01-30T11:49:47.178Z,9.73
2023-01-30T11:52:38.110Z,13.30
2023-01-30T11:55:22.742Z,9.13
2023-01-30T11:58:10.829Z,10.63
2023-01-30T12:00:56.068Z,15.40
2023-01-30T12:03:48.660Z,12.57
2023-01-30T12:06:34.410Z,10.20
2023-01-30T12:09:33.604Z,11.13
2023-01-30T12:12:30.498Z,8.50
2023-01-30T12:15:24.563Z,12.13
2023-01-30T12:18:17.644Z,8.50
2023-01-30T12:21:03.255Z,10.93
2023-01-30T12:23:54.113Z,13.17
2023-01-30T12:26:45.692Z,11.70
2023-01-30T12:29:32.669Z,13.07
2023-01-30T12:32:20.199Z,9.17
2023-01-30T12:35:17.072Z,10.77
2023-01-30T12:38:09.234Z,10.80
2023-01-30T12:41:03.780Z,12.77
2023-01-30T12:44:00.879Z,9.43
2023-01-30T12:46:57.480Z,12.63
2023-01-30T12:50:00.053Z,11.80
2023-01-30T12:53:03.558Z,12.17
2023-01-30T12:55:57.312Z,12.70
2023-01-30T12:58:46.697Z,15.47
2023-01-30T13:01:40.538Z,15.00
2023-01-30T13:04:37.566Z,16.60
2023-01-30T13:07:33.897Z,14.90
2023-01-30T13:10:25.365Z,14.27
2023-01-30T13:13:19.180Z,16.17
2023-01-30T13:16:10.520Z,13.33
2023-01-30T13:18:59.007Z,12.17
2023-01-30T13:21:50.872Z,16.67
2023-01-30T13:24:48.222Z,14.73
2023-01-30T13:27:38.286Z,12.73
2023-01-30T13:30:25.626Z,13.27
2023-01-30T13:33:14.818Z,12.80
2023-01-30T13:36:07.859Z,12.93
2023-01-30T13:39:05.620Z,14.60
2023-01-30T13:41:57.489Z,9.17
2023-01-30T13:44:44.896Z,11.13
2023-01-30T13:47:42.147Z,10.17
2023-01-30T13:50:54.373Z,12.50
2023-01-30T13:53:43.867Z,12.33
2023-01-30T13:56:41.950Z,13.07
2023-01-30T13:59:42.179Z,12.43
2023-01-30T14:02:27.651Z,12.30
2023-01-30T14:05:11.548Z,12.23
2023-01-30T14:07:55.355Z,11.87
2023-01-30T14:10:39.178Z,14.60
2023-01-30T14:13:24.756Z,14.47
2023-01-30T14:16:09.093Z,20.97
2023-01-30T14:18:54.312Z,17.77
2023-01-30T14:21:38.593Z,14.27
2023-01-30T14:24:25.116Z,23.87
2023-01-30T14:27:27.537Z,19.47
2023-01-30T14:30:37.361Z,12.40
2023-01-30T14:33:51.383Z,13.50
2023-01-30T14:36:38.284Z,12.97
2023-01-30T14:39:55.681Z,13.57
2023-01-30T14:42:39.485Z,13.70
2023-01-30T14:45:46.267Z,15.67
2023-01-30T14:48:32.576Z,14.40
2023-01-30T14:51:23.946Z,16.60
2023-01-30T14:54:25.491Z,14.93
2023-01-30T14:57:22.198Z,17.30
2023-01-30T15:00:18.822Z,12.10
2023-01-30T15:03:08.492Z,10.07
2023-01-30T15:05:52.573Z,11.40
2023-01-30T15:08:41.911Z,12.50
2023-01-30T15:11:33.144Z,12.83
2023-01-30T15:14:23.735Z,16.47
2023-01-30T15:17:23.106Z,12.23
2023-01-30T15:20:33.688Z,14.60
2023-01-30T15:23:44.176Z,11.40
2023-01-30T15:26:42.636Z,11.80
2023-01-30T15:30:04.380Z,11.03
2023-01-30T15:32:50.040Z,15.27
2023-01-30T15:35:33.858Z,13.17
2023-01-30T15:38:26.943Z,13.40
2023-01-30T15:41:11.878Z,10.50
2023-01-30T15:44:20.553Z,12.93
2023-01-30T15:47:21.791Z,12.37
2023-01-30T15:50:08.584Z,15.07
2023-01-30T15:52:56.597Z,12.63
2023-01-30T15:55:40.509Z,16.83
2023-01-30T15:58:25.711Z,15.77
2023-01-30T16:01:15.456Z,13.27
2023-01-30T16:04:00.521Z,13.67
2023-01-30T16:06:44.352Z,16.43
2023-01-30T16:09:28.240Z,15.70
2023-01-30T16:12:25.734Z,17.67
2023-01-30T16:18:33.904Z,14.73
2023-01-30T16:21:20.975Z,13.47
2023-01-30T16:24:08.160Z,13.70
2023-01-30T16:26:56.283Z,14.03
2023-01-30T16:29:53.087Z,14.30
2023-01-30T16:32:38.944Z,13.50
2023-01-30T16:35:34.271Z,14.17
2023-01-30T16:38:38.745Z,14.40
2023-01-30T16:41:34.286Z,14.63
2023-01-30T16:44:20.456Z,13.23
2023-01-30T16:47:06.263Z,17.07
2023-01-30T16:49:52.848Z,11.70
2023-01-30T16:52:45.569Z,13.33
2023-01-30T16:55:29.557Z,13.33
2023-01-30T16:58:18.901Z,12.50
2023-01-30T17:01:05.262Z,15.10
2023-01-30T17:04:01.727Z,13.37
2023-01-30T17:06:50.096Z,14.57
2023-01-30T17:09:43.017Z,14.30
2023-01-30T17:12:48.471Z,13.90
2023-01-30T17:15:39.265Z,14.70
2023-01-30T17:18:23.092Z,16.73
2023-01-30T17:21:06.903Z,15.67
2023-01-30T17:23:54.514Z,13.83
2023-01-30T17:26:40.935Z,15.47
2023-01-30T17:29:41.597Z,14.40
2023-01-30T17:32:26.381Z,17.20
2023-01-30T17:35:10.617Z,18.50
2023-01-30T17:38:04.816Z,17.63
2023-01-30T17:40:50.095Z,17.20
2023-01-30T17:43:35.273Z,16.97
2023-01-30T17:46:20.038Z,17.73
2023-01-30T17:49:04.547Z,16.63
2023-01-30T17:51:49.121Z,16.93
2023-01-30T17:54:33.122Z,17.83
2023-01-30T17:57:17.082Z,18.23
2023-01-30T18:00:02.300Z,27.83
2023-01-30T18:02:54.256Z,46.03
2023-01-30T18:05:38.072Z,20.47
2023-01-30T18:08:24.959Z,17.20
2023-01-30T18:11:11.870Z,15.70
2023-01-30T18:13:55.745Z,16.77
2023-01-30T18:16:41.426Z,19.33
2023-01-30T18:19:25.260Z,18.10
2023-01-30T18:22:10.693Z,15.00
2023-01-30T18:24:54.525Z,17.87
2023-01-30T18:27:38.420Z,21.10
2023-01-30T18:30:25.104Z,17.27
2023-01-30T18:33:10.339Z,19.00
2023-01-30T18:35:56.239Z,19.10
2023-01-30T18:38:39.984Z,20.13
2023-01-30T18:41:25.266Z,18.23
2023-01-30T18:44:09.105Z,18.90
2023-01-30T18:46:52.875Z,23.80
2023-01-30T18:49:38.383Z,29.70
2023-01-30T18:52:23.809Z,29.07
2023-01-30T18:55:08.164Z,27.47
2023-01-30T18:57:52.143Z,24.97
2023-01-30T19:00:35.958Z,26.00
2023-01-30T19:03:19.830Z,31.90
2023-01-30T19:06:05.625Z,35.07
2023-01-30T19:08:49.469Z,34.83
2023-01-30T19:11:53.022Z,29.67
2023-01-30T19:14:43.002Z,32.33
2023-01-30T19:17:27.012Z,34.00
2023-01-30T19:20:14.799Z,30.27
2023-01-30T19:23:00.005Z,25.97
2023-01-30T19:25:44.043Z,38.17
2023-01-30T19:28:28.244Z,30.40
2023-01-30T19:31:17.284Z,49.07
2023-01-30T19:34:02.968Z,29.30
2023-01-30T19:36:48.223Z,34.93
2023-01-30T19:39:33.499Z,23.37
2023-01-30T19:42:19.673Z,25.80
2023-01-30T19:45:03.904Z,31.70
2023-01-30T19:47:48.011Z,44.23
2023-01-30T19:50:32.990Z,33.43
2023-01-30T19:53:16.805Z,31.57
2023-01-30T19:56:04.050Z,42.33
2023-01-30T19:58:50.733Z,35.07
2023-01-30T20:01:37.688Z,40.37
2023-01-30T20:04:21.585Z,42.53
2023-01-30T20:07:05.592Z,40.93
2023-01-30T20:09:49.518Z,29.07
2023-01-30T20:12:36.139Z,36.57
2023-01-30T20:15:20.175Z,34.93
2023-01-30T20:18:04.332Z,37.23
2023-01-30T20:20:48.403Z,39.57
2023-01-30T20:23:32.392Z,26.67
2023-01-30T20:26:18.802Z,29.83
2023-01-30T20:29:07.494Z,33.07
2023-01-30T20:31:54.006Z,38.23
2023-01-30T20:34:38.013Z,31.03
2023-01-30T20:37:22.056Z,54.97
2023-01-30T20:40:07.016Z,32.40
2023-01-30T20:42:51.035Z,33.77
2023-01-30T20:45:36.533Z,33.43
2023-01-30T20:48:20.453Z,36.57
2023-01-30T20:51:05.475Z,29.83
2023-01-30T20:53:54.466Z,31.63
2023-01-30T20:56:40.021Z,30.83
2023-01-30T20:59:27.335Z,28.30
2023-01-30T21:02:12.903Z,27.00
2023-01-30T21:04:56.995Z,27.23
2023-01-30T21:07:41.218Z,39.80
2023-01-30T21:10:25.244Z,51.13
2023-01-30T21:13:10.822Z,40.37
2023-01-30T21:16:02.819Z,71.83
2023-01-30T21:18:49.691Z,38.50
2023-01-30T21:21:37.008Z,116.20
2023-01-30T21:24:24.004Z,39.47
2023-01-30T21:27:08.059Z,32.60
2023-01-30T21:29:52.286Z,36.80
2023-01-30T21:32:36.734Z,41.07
2023-01-30T21:35:22.206Z,38.90
2023-01-30T21:38:23.887Z,41.30
2023-01-30T21:41:23.717Z,35.47
2023-01-30T21:44:10.166Z,32.97
2023-01-30T21:46:54.144Z,33.73
2023-01-30T21:49:38.166Z,35.57
2023-01-30T21:52:23.593Z,30.27
2023-01-30T21:55:08.171Z,33.03
2023-01-30T21:57:52.520Z,33.20
2023-01-30T22:00:36.948Z,38.50
2023-01-30T22:03:21.001Z,34.00
2023-01-30T22:06:07.771Z,31.97
2023-01-30T22:08:56.776Z,39.50
2023-01-30T22:11:40.720Z,31.00
2023-01-30T22:14:24.760Z,36.30
2023-01-30T22:17:08.808Z,47.67
2023-01-30T22:19:52.987Z,40.17
2023-01-30T22:22:37.301Z,35.90
2023-01-30T22:25:22.932Z,37.03
2023-01-30T22:28:09.345Z,40.83
2023-01-30T22:30:54.156Z,33.50
2023-01-30T22:33:38.620Z,35.47
2023-01-30T22:36:25.422Z,37.87
2023-01-30T22:39:09.515Z,35.80
2023-01-30T22:41:55.043Z,38.43
2023-01-30T22:44:39.893Z,36.57
2023-01-30T22:47:23.872Z,36.37
2023-01-30T22:50:08.449Z,32.20
2023-01-30T22:52:52.447Z,28.60
2023-01-30T22:55:39.260Z,33.80
2023-01-30T22:58:24.896Z,32.40
2023-01-30T23:01:10.584Z,34.33
2023-01-30T23:03:56.713Z,31.33
2023-01-30T23:06:40.736Z,34.37
2023-01-30T23:09:25.090Z,33.50
2023-01-30T23:12:26.513Z,30.20
2023-01-30T23:15:12.790Z,26.57
2023-01-30T23:18:14.324Z,31.53
2023-01-30T23:20:58.443Z,27.70
2023-01-30T23:23:42.910Z,39.67
2023-01-30T23:26:29.242Z,30.00
2023-01-30T23:29:15.052Z,31.57
2023-01-30T23:32:02.396Z,30.80
2023-01-30T23:34:46.216Z,32.90
2023-01-30T23:37:43.898Z,25.43
2023-01-30T23:40:27.773Z,30.37
2023-01-30T23:43:11.805Z,30.93
2023-01-30T23:45:56.009Z,29.03
2023-01-30T23:48:41.247Z,29.27
2023-01-30T23:51:27.376Z,28.53
2023-01-30T23:54:12.041Z,36.53
2023-01-30T23:56:56.135Z,33.67
2023-01-30T23:59:39.851Z,31.93
